sensor_id;sensor_type;location;lat;lon;timestamp;pressure;altitude;pressure_sealevel;temperature;humidity
73105;BME280;61296;50.526;30.792;2023-02-01T00:06:58;98566.06;;;-0.33;100.00
73105;BME280;61296;50.526;30.792;2023-02-01T00:22:19;98641.31;;;-0.14;100.00
73105;BME280;61296;50.526;30.792;2023-02-01T00:37:41;98545.53;;;-0.84;100.00
73105;BME280;61296;50.526;30.792;2023-02-01T00:53:00;98564.47;;;-0.93;100.00
73105;BME280;61296;50.526;30.792;2023-02-01T01:08:19;98565.75;;;-0.99;100.00
73105;BME280;61296;50.526;30.792;2023-02-01T01:23:39;98473.91;;;-1.66;99.56
73105;BME280;61296;50.526;30.792;2023-02-01T01:38:59;98637.72;;;-0.65;99.37
73105;BME280;61296;50.526;30.792;2023-02-01T01:54:33;98642.06;;;-0.81;98.55
73105;BME280;61296;50.526;30.792;2023-02-01T02:09:54;98495.16;;;-1.56;97.85
73105;BME280;61296;50.526;30.792;2023-02-01T02:41:04;98531.09;;;-1.35;96.87
73105;BME280;61296;50.526;30.792;2023-02-01T02:56:26;98528.06;;;-1.25;96.16
73105;BME280;61296;50.526;30.792;2023-02-01T03:12:09;98618.66;;;-0.60;96.19
73105;BME280;61296;50.526;30.792;2023-02-01T03:28:06;98582.06;;;-0.87;96.02
73105;BME280;61296;50.526;30.792;2023-02-01T03:43:30;98496.31;;;-1.28;95.87
73105;BME280;61296;50.526;30.792;2023-02-01T03:58:53;98520.75;;;-1.24;95.82
73105;BME280;61296;50.526;30.792;2023-02-01T04:14:20;98598.09;;;-0.81;96.76
73105;BME280;61296;50.526;30.792;2023-02-01T04:29:40;98475.97;;;-1.72;97.77
73105;BME280;61296;50.526;30.792;2023-02-01T04:45:00;98546.31;;;-1.30;97.94
73105;BME280;61296;50.526;30.792;2023-02-01T05:00:19;98495.47;;;-1.66;98.33
73105;BME280;61296;50.526;30.792;2023-02-01T05:15:39;98574.16;;;-1.00;98.31
73105;BME280;61296;50.526;30.792;2023-02-01T05:31:00;98603.31;;;-0.85;97.80
73105;BME280;61296;50.526;30.792;2023-02-01T05:46:19;98484.06;;;-1.63;98.44
73105;BME280;61296;50.526;30.792;2023-02-01T09:07:49;98450.63;;;1.12;82.12
73105;BME280;61296;50.526;30.792;2023-02-01T09:23:09;98357.59;;;0.68;80.97
73105;BME280;61296;50.526;30.792;2023-02-01T09:38:29;98454.75;;;1.59;80.32
73105;BME280;61296;50.526;30.792;2023-02-01T09:53:59;98410.97;;;1.57;72.85
73105;BME280;61296;50.526;30.792;2023-02-01T10:09:49;98361.84;;;1.58;71.61
73105;BME280;61296;50.526;30.792;2023-02-01T10:25:21;98403.00;;;2.04;69.25
73105;BME280;61296;50.526;30.792;2023-02-01T10:40:42;98314.41;;;1.24;69.69
73105;BME280;61296;50.526;30.792;2023-02-01T10:56:12;98389.59;;;1.55;70.23
73105;BME280;61296;50.526;30.792;2023-02-01T11:11:32;98245.31;;;0.50;71.33
73105;BME280;61296;50.526;30.792;2023-02-01T11:26:55;98290.28;;;0.30;74.88
73105;BME280;61296;50.526;30.792;2023-02-01T11:42:16;98211.53;;;-0.17;78.61
73105;BME280;61296;50.526;30.792;2023-02-01T11:57:52;98302.47;;;0.24;82.44
73105;BME280;61296;50.526;30.792;2023-02-01T12:13:18;98356.22;;;0.38;86.92
73105;BME280;61296;50.526;30.792;2023-02-01T12:44:51;98336.25;;;0.30;92.18
73105;BME280;61296;50.526;30.792;2023-02-01T13:00:25;98252.84;;;-0.29;92.19
73105;BME280;61296;50.526;30.792;2023-02-01T13:16:21;98324.78;;;0.21;93.03
73105;BME280;61296;50.526;30.792;2023-02-01T18:11:46;98299.53;;;-0.41;100.00
73105;BME280;61296;50.526;30.792;2023-02-01T18:27:07;98341.44;;;-0.22;100.00
73105;BME280;61296;50.526;30.792;2023-02-01T18:42:27;98319.41;;;-0.45;100.00
73105;BME280;61296;50.526;30.792;2023-02-01T18:57:46;98288.63;;;-0.65;100.00
73105;BME280;61296;50.526;30.792;2023-02-01T19:13:07;98352.66;;;-0.33;100.00
73105;BME280;61296;50.526;30.792;2023-02-01T19:28:28;98374.91;;;-0.15;100.00
73105;BME280;61296;50.526;30.792;2023-02-01T19:43:47;98331.84;;;-0.32;100.00
73105;BME280;61296;50.526;30.792;2023-02-01T19:59:07;98344.34;;;0.06;100.00
73105;BME280;61296;50.526;30.792;2023-02-01T20:14:27;98327.09;;;0.10;100.00
73105;BME280;61296;50.526;30.792;2023-02-01T20:29:47;98389.00;;;0.36;100.00
73105;BME280;61296;50.526;30.792;2023-02-01T20:45:06;98343.09;;;0.03;100.00
73105;BME280;61296;50.526;30.792;2023-02-01T21:00:26;98400.44;;;0.54;100.00
73105;BME280;61296;50.526;30.792;2023-02-01T21:15:46;98410.03;;;0.64;100.00
73105;BME280;61296;50.526;30.792;2023-02-01T21:31:07;98341.00;;;0.21;100.00
73105;BME280;61296;50.526;30.792;2023-02-01T21:46:27;98361.38;;;0.31;100.00
73105;BME280;61296;50.526;30.792;2023-02-01T22:01:46;98356.56;;;0.36;100.00
73105;BME280;61296;50.526;30.792;2023-02-01T22:17:06;98354.41;;;0.29;100.00
73105;BME280;61296;50.526;30.792;2023-02-01T22:32:25;98395.22;;;0.61;100.00
73105;BME280;61296;50.526;30.792;2023-02-01T22:47:44;98410.91;;;0.68;100.00
73105;BME280;61296;50.526;30.792;2023-02-01T23:03:08;98357.09;;;0.29;100.00
73105;BME280;61296;50.526;30.792;2023-02-01T23:18:27;98415.00;;;0.74;100.00
73105;BME280;61296;50.526;30.792;2023-02-01T23:33:47;98409.91;;;0.72;100.00
73105;BME280;61296;50.526;30.792;2023-02-01T23:49:08;98353.22;;;0.06;100.00
